Tamarron, Colorado
Current Conditions -  °F | °C
As of 8:53 AM on Friday 24 Oct 2014 (Local Time) from KDRO Reporting Station
Clear Clear  
Wind Chill: 38°   Ceiling: Unl
Heat Index: 41°   Visibility: 10mi
Dew Point: 36°   Wind: 5mph
Humidity: 82%   Direction: 50°NE
Pressure: 30.41"   Gusts: NA
Location:  37.1483°N, 107.911°W
Report Text: KDRO 241453Z AUTO 05004KT 10SM CLR 05/02 A3041 RMK AO2 RAB32E43 SLP278 P0000 60000 T00500022 53015
Loading
Personal Weather Stations






























Interactive Weather Map
Tropical Storm Tracking
New forecast layout! Learn more

10-Day Weather Forecast

Advertisements
Track Severe Weather on mobile